sensor_id;sensor_type;location;lat;lon;timestamp;P1;durP1;ratioP1;P2;durP2;ratioP2
6626;SDS011;3349;49.830;8.748;2023-06-10T00:01:25;13.30;;;11.77;;
6626;SDS011;3349;49.830;8.748;2023-06-10T00:03:52;13.60;;;12.30;;
6626;SDS011;3349;49.830;8.748;2023-06-10T00:06:19;12.98;;;11.70;;
6626;SDS011;3349;49.830;8.748;2023-06-10T00:08:50;13.45;;;12.07;;
6626;SDS011;3349;49.830;8.748;2023-06-10T00:11:17;12.82;;;11.63;;
6626;SDS011;3349;49.830;8.748;2023-06-10T00:13:44;13.10;;;11.82;;
6626;SDS011;3349;49.830;8.748;2023-06-10T00:16:10;13.63;;;12.10;;
6626;SDS011;3349;49.830;8.748;2023-06-10T00:18:38;15.20;;;13.20;;
6626;SDS011;3349;49.830;8.748;2023-06-10T00:21:04;12.73;;;11.52;;
6626;SDS011;3349;49.830;8.748;2023-06-10T00:23:31;12.80;;;11.60;;
6626;SDS011;3349;49.830;8.748;2023-06-10T00:26:04;12.82;;;11.63;;
6626;SDS011;3349;49.830;8.748;2023-06-10T00:28:31;13.15;;;12.00;;
6626;SDS011;3349;49.830;8.748;2023-06-10T00:30:58;12.93;;;11.25;;
6626;SDS011;3349;49.830;8.748;2023-06-10T00:33:24;12.93;;;11.07;;
6626;SDS011;3349;49.830;8.748;2023-06-10T00:35:51;13.73;;;11.68;;
6626;SDS011;3349;49.830;8.748;2023-06-10T00:38:18;13.13;;;11.93;;
6626;SDS011;3349;49.830;8.748;2023-06-10T00:40:44;12.10;;;10.90;;
6626;SDS011;3349;49.830;8.748;2023-06-10T00:43:13;13.88;;;12.38;;
6626;SDS011;3349;49.830;8.748;2023-06-10T00:45:39;14.00;;;12.60;;
6626;SDS011;3349;49.830;8.748;2023-06-10T00:48:06;13.70;;;12.35;;
6626;SDS011;3349;49.830;8.748;2023-06-10T00:50:33;13.10;;;11.70;;
6626;SDS011;3349;49.830;8.748;2023-06-10T00:53:04;12.43;;;11.32;;
6626;SDS011;3349;49.830;8.748;2023-06-10T00:55:31;13.25;;;11.98;;
6626;SDS011;3349;49.830;8.748;2023-06-10T00:57:58;13.02;;;11.45;;
6626;SDS011;3349;49.830;8.748;2023-06-10T01:00:27;13.52;;;12.23;;
6626;SDS011;3349;49.830;8.748;2023-06-10T01:02:54;12.70;;;11.35;;
6626;SDS011;3349;49.830;8.748;2023-06-10T01:05:20;13.80;;;11.95;;
6626;SDS011;3349;49.830;8.748;2023-06-10T01:07:49;12.85;;;11.70;;
6626;SDS011;3349;49.830;8.748;2023-06-10T01:10:23;12.32;;;11.23;;
6626;SDS011;3349;49.830;8.748;2023-06-10T01:12:58;12.95;;;11.65;;
6626;SDS011;3349;49.830;8.748;2023-06-10T01:15:29;12.70;;;11.10;;
6626;SDS011;3349;49.830;8.748;2023-06-10T01:17:57;13.48;;;11.75;;
6626;SDS011;3349;49.830;8.748;2023-06-10T01:20:25;13.18;;;11.65;;
6626;SDS011;3349;49.830;8.748;2023-06-10T01:22:54;13.73;;;11.73;;
6626;SDS011;3349;49.830;8.748;2023-06-10T01:25:22;14.18;;;11.70;;
6626;SDS011;3349;49.830;8.748;2023-06-10T01:27:53;12.90;;;11.68;;
6626;SDS011;3349;49.830;8.748;2023-06-10T01:30:26;13.88;;;12.40;;
6626;SDS011;3349;49.830;8.748;2023-06-10T01:32:56;13.25;;;11.90;;
6626;SDS011;3349;49.830;8.748;2023-06-10T01:35:25;13.45;;;12.07;;
6626;SDS011;3349;49.830;8.748;2023-06-10T01:37:54;13.25;;;11.95;;
6626;SDS011;3349;49.830;8.748;2023-06-10T01:40:24;13.40;;;12.07;;
6626;SDS011;3349;49.830;8.748;2023-06-10T01:42:52;12.73;;;11.52;;
6626;SDS011;3349;49.830;8.748;2023-06-10T01:45:19;13.25;;;11.95;;
6626;SDS011;3349;49.830;8.748;2023-06-10T01:47:46;12.95;;;11.60;;
6626;SDS011;3349;49.830;8.748;2023-06-10T01:50:12;13.93;;;12.52;;
6626;SDS011;3349;49.830;8.748;2023-06-10T01:52:39;13.60;;;12.30;;
6626;SDS011;3349;49.830;8.748;2023-06-10T01:55:08;13.73;;;12.13;;
6626;SDS011;3349;49.830;8.748;2023-06-10T01:57:34;17.63;;;12.50;;
6626;SDS011;3349;49.830;8.748;2023-06-10T02:00:01;13.43;;;12.13;;
6626;SDS011;3349;49.830;8.748;2023-06-10T02:02:28;13.35;;;12.05;;
6626;SDS011;3349;49.830;8.748;2023-06-10T02:04:55;13.30;;;12.00;;
6626;SDS011;3349;49.830;8.748;2023-06-10T02:07:22;13.35;;;11.93;;
6626;SDS011;3349;49.830;8.748;2023-06-10T02:09:48;15.02;;;12.02;;
6626;SDS011;3349;49.830;8.748;2023-06-10T02:12:17;13.10;;;11.80;;
6626;SDS011;3349;49.830;8.748;2023-06-10T02:14:43;13.30;;;12.10;;
6626;SDS011;3349;49.830;8.748;2023-06-10T02:17:10;13.90;;;12.40;;
6626;SDS011;3349;49.830;8.748;2023-06-10T02:19:39;13.77;;;12.35;;
6626;SDS011;3349;49.830;8.748;2023-06-10T02:22:08;13.13;;;11.82;;
6626;SDS011;3349;49.830;8.748;2023-06-10T02:24:35;13.10;;;11.70;;
6626;SDS011;3349;49.830;8.748;2023-06-10T02:27:03;14.15;;;12.30;;
6626;SDS011;3349;49.830;8.748;2023-06-10T02:29:33;13.85;;;11.88;;
6626;SDS011;3349;49.830;8.748;2023-06-10T02:32:00;13.93;;;12.68;;
6626;SDS011;3349;49.830;8.748;2023-06-10T02:34:27;13.70;;;12.00;;
6626;SDS011;3349;49.830;8.748;2023-06-10T02:36:54;13.50;;;12.10;;
6626;SDS011;3349;49.830;8.748;2023-06-10T02:39:21;13.95;;;12.55;;
6626;SDS011;3349;49.830;8.748;2023-06-10T02:41:48;14.70;;;13.13;;
6626;SDS011;3349;49.830;8.748;2023-06-10T02:44:14;16.55;;;12.00;;
6626;SDS011;3349;49.830;8.748;2023-06-10T02:46:42;13.68;;;12.32;;
6626;SDS011;3349;49.830;8.748;2023-06-10T02:49:09;13.27;;;12.07;;
6626;SDS011;3349;49.830;8.748;2023-06-10T02:51:36;14.10;;;12.45;;
6626;SDS011;3349;49.830;8.748;2023-06-10T02:54:03;14.25;;;12.75;;
6626;SDS011;3349;49.830;8.748;2023-06-10T02:56:30;13.65;;;12.18;;
6626;SDS011;3349;49.830;8.748;2023-06-10T02:58:58;13.60;;;12.20;;
6626;SDS011;3349;49.830;8.748;2023-06-10T03:01:25;13.65;;;12.25;;
6626;SDS011;3349;49.830;8.748;2023-06-10T03:03:53;14.13;;;12.73;;
6626;SDS011;3349;49.830;8.748;2023-06-10T03:06:21;13.63;;;12.23;;
6626;SDS011;3349;49.830;8.748;2023-06-10T03:08:49;14.35;;;12.50;;
6626;SDS011;3349;49.830;8.748;2023-06-10T03:11:16;14.82;;;12.90;;
6626;SDS011;3349;49.830;8.748;2023-06-10T03:13:44;14.15;;;12.63;;
6626;SDS011;3349;49.830;8.748;2023-06-10T03:16:11;14.75;;;13.07;;
6626;SDS011;3349;49.830;8.748;2023-06-10T03:18:38;14.07;;;12.77;;
6626;SDS011;3349;49.830;8.748;2023-06-10T03:21:06;13.70;;;12.38;;
6626;SDS011;3349;49.830;8.748;2023-06-10T03:23:33;16.10;;;12.80;;
6626;SDS011;3349;49.830;8.748;2023-06-10T03:26:00;14.77;;;13.18;;
6626;SDS011;3349;49.830;8.748;2023-06-10T03:28:29;13.18;;;11.77;;
6626;SDS011;3349;49.830;8.748;2023-06-10T03:30:56;19.27;;;13.52;;
6626;SDS011;3349;49.830;8.748;2023-06-10T03:33:23;14.68;;;13.07;;
6626;SDS011;3349;49.830;8.748;2023-06-10T03:35:51;14.85;;;13.38;;
6626;SDS011;3349;49.830;8.748;2023-06-10T03:38:19;15.38;;;12.60;;
6626;SDS011;3349;49.830;8.748;2023-06-10T03:40:46;13.57;;;12.15;;
6626;SDS011;3349;49.830;8.748;2023-06-10T03:43:13;15.48;;;13.02;;
6626;SDS011;3349;49.830;8.748;2023-06-10T03:45:40;14.38;;;12.88;;
6626;SDS011;3349;49.830;8.748;2023-06-10T03:48:07;14.57;;;13.07;;
6626;SDS011;3349;49.830;8.748;2023-06-10T03:50:34;14.80;;;12.43;;
6626;SDS011;3349;49.830;8.748;2023-06-10T03:53:01;15.90;;;13.20;;
6626;SDS011;3349;49.830;8.748;2023-06-10T03:55:29;14.02;;;12.60;;
6626;SDS011;3349;49.830;8.748;2023-06-10T03:57:56;14.25;;;12.30;;
6626;SDS011;3349;49.830;8.748;2023-06-10T04:00:23;13.77;;;11.50;;
6626;SDS011;3349;49.830;8.748;2023-06-10T04:02:49;14.70;;;13.25;;
6626;SDS011;3349;49.830;8.748;2023-06-10T04:05:17;16.33;;;12.80;;
6626;SDS011;3349;49.830;8.748;2023-06-10T04:07:46;13.90;;;12.48;;
6626;SDS011;3349;49.830;8.748;2023-06-10T04:10:13;14.63;;;13.00;;
6626;SDS011;3349;49.830;8.748;2023-06-10T04:12:41;13.95;;;12.48;;
6626;SDS011;3349;49.830;8.748;2023-06-10T04:15:08;14.50;;;13.10;;
6626;SDS011;3349;49.830;8.748;2023-06-10T04:17:35;14.30;;;12.43;;
6626;SDS011;3349;49.830;8.748;2023-06-10T04:20:02;15.10;;;13.25;;
6626;SDS011;3349;49.830;8.748;2023-06-10T04:22:32;15.43;;;12.88;;
6626;SDS011;3349;49.830;8.748;2023-06-10T04:24:59;21.50;;;13.55;;
6626;SDS011;3349;49.830;8.748;2023-06-10T04:27:25;16.77;;;13.73;;
6626;SDS011;3349;49.830;8.748;2023-06-10T04:29:54;16.55;;;14.23;;
6626;SDS011;3349;49.830;8.748;2023-06-10T04:32:20;16.27;;;14.68;;
6626;SDS011;3349;49.830;8.748;2023-06-10T04:34:47;16.15;;;14.45;;
6626;SDS011;3349;49.830;8.748;2023-06-10T04:37:14;15.80;;;13.73;;
6626;SDS011;3349;49.830;8.748;2023-06-10T04:39:41;15.35;;;13.75;;
6626;SDS011;3349;49.830;8.748;2023-06-10T04:42:08;15.75;;;14.05;;
6626;SDS011;3349;49.830;8.748;2023-06-10T04:44:34;16.30;;;14.77;;
6626;SDS011;3349;49.830;8.748;2023-06-10T04:47:02;18.25;;;15.00;;
6626;SDS011;3349;49.830;8.748;2023-06-10T04:49:29;15.80;;;14.20;;
6626;SDS011;3349;49.830;8.748;2023-06-10T04:51:56;17.48;;;15.50;;
6626;SDS011;3349;49.830;8.748;2023-06-10T04:54:25;18.15;;;16.27;;
6626;SDS011;3349;49.830;8.748;2023-06-10T04:56:51;16.95;;;15.15;;
6626;SDS011;3349;49.830;8.748;2023-06-10T04:59:19;16.38;;;14.82;;
6626;SDS011;3349;49.830;8.748;2023-06-10T05:01:46;18.45;;;15.73;;
6626;SDS011;3349;49.830;8.748;2023-06-10T05:04:14;16.08;;;14.48;;
6626;SDS011;3349;49.830;8.748;2023-06-10T05:06:41;17.15;;;15.35;;
6626;SDS011;3349;49.830;8.748;2023-06-10T05:09:09;16.65;;;14.95;;
6626;SDS011;3349;49.830;8.748;2023-06-10T05:11:36;17.08;;;15.27;;
6626;SDS011;3349;49.830;8.748;2023-06-10T05:14:02;16.70;;;15.10;;
6626;SDS011;3349;49.830;8.748;2023-06-10T05:16:30;18.67;;;15.98;;
6626;SDS011;3349;49.830;8.748;2023-06-10T05:18:57;18.08;;;15.30;;
6626;SDS011;3349;49.830;8.748;2023-06-10T05:21:25;16.42;;;14.68;;
6626;SDS011;3349;49.830;8.748;2023-06-10T05:23:51;17.13;;;15.40;;
6626;SDS011;3349;49.830;8.748;2023-06-10T05:26:18;16.35;;;14.63;;
6626;SDS011;3349;49.830;8.748;2023-06-10T05:28:45;17.52;;;14.98;;
6626;SDS011;3349;49.830;8.748;2023-06-10T05:31:12;16.67;;;15.00;;
6626;SDS011;3349;49.830;8.748;2023-06-10T05:33:38;16.52;;;14.80;;
6626;SDS011;3349;49.830;8.748;2023-06-10T05:36:05;17.38;;;15.38;;
6626;SDS011;3349;49.830;8.748;2023-06-10T05:38:33;16.63;;;14.93;;
6626;SDS011;3349;49.830;8.748;2023-06-10T05:41:00;18.00;;;14.57;;
6626;SDS011;3349;49.830;8.748;2023-06-10T05:43:27;16.70;;;15.00;;
6626;SDS011;3349;49.830;8.748;2023-06-10T05:45:53;18.23;;;14.65;;
6626;SDS011;3349;49.830;8.748;2023-06-10T05:48:20;17.20;;;15.43;;
6626;SDS011;3349;49.830;8.748;2023-06-10T05:50:47;15.02;;;13.52;;
6626;SDS011;3349;49.830;8.748;2023-06-10T05:53:14;15.75;;;14.35;;
6626;SDS011;3349;49.830;8.748;2023-06-10T05:55:43;15.48;;;14.05;;
6626;SDS011;3349;49.830;8.748;2023-06-10T05:58:10;15.98;;;14.23;;
6626;SDS011;3349;49.830;8.748;2023-06-10T06:00:37;14.80;;;13.25;;
6626;SDS011;3349;49.830;8.748;2023-06-10T06:03:05;16.33;;;13.68;;
6626;SDS011;3349;49.830;8.748;2023-06-10T06:05:33;15.23;;;13.30;;
6626;SDS011;3349;49.830;8.748;2023-06-10T06:08:00;14.38;;;13.10;;
6626;SDS011;3349;49.830;8.748;2023-06-10T06:10:27;13.88;;;12.57;;
6626;SDS011;3349;49.830;8.748;2023-06-10T06:12:55;15.18;;;13.77;;
6626;SDS011;3349;49.830;8.748;2023-06-10T06:15:22;15.00;;;13.35;;
6626;SDS011;3349;49.830;8.748;2023-06-10T06:17:49;14.68;;;12.75;;
6626;SDS011;3349;49.830;8.748;2023-06-10T06:20:17;14.00;;;12.60;;
6626;SDS011;3349;49.830;8.748;2023-06-10T06:22:44;14.23;;;12.77;;
6626;SDS011;3349;49.830;8.748;2023-06-10T06:25:11;13.73;;;12.35;;
6626;SDS011;3349;49.830;8.748;2023-06-10T06:27:37;16.45;;;12.70;;
6626;SDS011;3349;49.830;8.748;2023-06-10T06:30:06;13.73;;;12.43;;
6626;SDS011;3349;49.830;8.748;2023-06-10T06:32:33;15.77;;;11.60;;
6626;SDS011;3349;49.830;8.748;2023-06-10T06:35:00;12.65;;;11.43;;
6626;SDS011;3349;49.830;8.748;2023-06-10T06:37:27;12.95;;;11.63;;
6626;SDS011;3349;49.830;8.748;2023-06-10T06:39:54;13.63;;;10.32;;
6626;SDS011;3349;49.830;8.748;2023-06-10T06:42:21;12.40;;;11.07;;
6626;SDS011;3349;49.830;8.748;2023-06-10T06:44:47;13.15;;;11.88;;
6626;SDS011;3349;49.830;8.748;2023-06-10T06:47:15;13.23;;;12.02;;
6626;SDS011;3349;49.830;8.748;2023-06-10T06:49:44;13.85;;;12.45;;
6626;SDS011;3349;49.830;8.748;2023-06-10T06:52:11;14.30;;;12.30;;
6626;SDS011;3349;49.830;8.748;2023-06-10T06:54:38;16.92;;;11.73;;
6626;SDS011;3349;49.830;8.748;2023-06-10T06:57:05;13.10;;;11.75;;
6626;SDS011;3349;49.830;8.748;2023-06-10T06:59:32;14.93;;;11.80;;
6626;SDS011;3349;49.830;8.748;2023-06-10T07:01:59;13.48;;;12.07;;
6626;SDS011;3349;49.830;8.748;2023-06-10T07:04:27;15.65;;;12.90;;
6626;SDS011;3349;49.830;8.748;2023-06-10T07:06:53;14.32;;;12.82;;
6626;SDS011;3349;49.830;8.748;2023-06-10T07:09:20;15.55;;;12.90;;
6626;SDS011;3349;49.830;8.748;2023-06-10T07:11:47;16.25;;;13.38;;
6626;SDS011;3349;49.830;8.748;2023-06-10T07:14:13;13.65;;;12.32;;
6626;SDS011;3349;49.830;8.748;2023-06-10T07:16:40;13.40;;;12.05;;
6626;SDS011;3349;49.830;8.748;2023-06-10T07:19:07;13.07;;;11.77;;
6626;SDS011;3349;49.830;8.748;2023-06-10T07:21:35;14.63;;;13.13;;
6626;SDS011;3349;49.830;8.748;2023-06-10T07:24:03;14.30;;;12.80;;
6626;SDS011;3349;49.830;8.748;2023-06-10T07:26:30;13.18;;;11.77;;
6626;SDS011;3349;49.830;8.748;2023-06-10T07:28:57;13.23;;;11.82;;
6626;SDS011;3349;49.830;8.748;2023-06-10T07:31:23;13.05;;;11.75;;
6626;SDS011;3349;49.830;8.748;2023-06-10T07:33:50;12.93;;;11.60;;
6626;SDS011;3349;49.830;8.748;2023-06-10T07:36:17;13.10;;;11.80;;
6626;SDS011;3349;49.830;8.748;2023-06-10T07:38:45;13.32;;;11.80;;
6626;SDS011;3349;49.830;8.748;2023-06-10T07:41:12;13.48;;;12.07;;
6626;SDS011;3349;49.830;8.748;2023-06-10T07:43:39;13.13;;;11.82;;
6626;SDS011;3349;49.830;8.748;2023-06-10T07:46:06;11.85;;;10.65;;
6626;SDS011;3349;49.830;8.748;2023-06-10T07:48:32;12.85;;;11.32;;
6626;SDS011;3349;49.830;8.748;2023-06-10T07:50:59;13.25;;;11.57;;
6626;SDS011;3349;49.830;8.748;2023-06-10T07:53:26;12.88;;;11.68;;
6626;SDS011;3349;49.830;8.748;2023-06-10T07:55:54;12.02;;;10.82;;
6626;SDS011;3349;49.830;8.748;2023-06-10T07:58:21;11.90;;;10.68;;
6626;SDS011;3349;49.830;8.748;2023-06-10T08:00:48;11.85;;;10.68;;
6626;SDS011;3349;49.830;8.748;2023-06-10T08:03:14;11.90;;;10.70;;
6626;SDS011;3349;49.830;8.748;2023-06-10T08:05:41;10.98;;;9.93;;
6626;SDS011;3349;49.830;8.748;2023-06-10T08:08:08;11.25;;;10.25;;
6626;SDS011;3349;49.830;8.748;2023-06-10T08:10:35;11.00;;;9.88;;
6626;SDS011;3349;49.830;8.748;2023-06-10T08:13:03;11.10;;;10.10;;
6626;SDS011;3349;49.830;8.748;2023-06-10T08:15:30;11.90;;;10.40;;
6626;SDS011;3349;49.830;8.748;2023-06-10T08:17:56;11.43;;;10.20;;
6626;SDS011;3349;49.830;8.748;2023-06-10T08:20:23;11.38;;;10.38;;
6626;SDS011;3349;49.830;8.748;2023-06-10T08:22:50;14.65;;;11.25;;
6626;SDS011;3349;49.830;8.748;2023-06-10T08:25:17;12.25;;;11.07;;
6626;SDS011;3349;49.830;8.748;2023-06-10T08:27:44;14.25;;;11.07;;
6626;SDS011;3349;49.830;8.748;2023-06-10T08:30:12;11.70;;;10.73;;
6626;SDS011;3349;49.830;8.748;2023-06-10T08:32:39;12.52;;;11.45;;
6626;SDS011;3349;49.830;8.748;2023-06-10T08:35:06;11.57;;;10.38;;
6626;SDS011;3349;49.830;8.748;2023-06-10T08:37:33;11.60;;;10.57;;
6626;SDS011;3349;49.830;8.748;2023-06-10T08:40:00;12.02;;;10.93;;
6626;SDS011;3349;49.830;8.748;2023-06-10T08:42:28;12.35;;;10.77;;
6626;SDS011;3349;49.830;8.748;2023-06-10T08:45:00;13.32;;;11.15;;
6626;SDS011;3349;49.830;8.748;2023-06-10T08:47:30;13.10;;;11.68;;
6626;SDS011;3349;49.830;8.748;2023-06-10T08:50:01;12.93;;;11.73;;
6626;SDS011;3349;49.830;8.748;2023-06-10T08:52:33;12.68;;;11.57;;
6626;SDS011;3349;49.830;8.748;2023-06-10T08:55:03;12.32;;;11.13;;
6626;SDS011;3349;49.830;8.748;2023-06-10T08:57:30;13.05;;;11.48;;
6626;SDS011;3349;49.830;8.748;2023-06-10T08:59:57;12.73;;;11.43;;
6626;SDS011;3349;49.830;8.748;2023-06-10T09:02:24;13.00;;;11.80;;
6626;SDS011;3349;49.830;8.748;2023-06-10T09:04:52;13.00;;;12.00;;
6626;SDS011;3349;49.830;8.748;2023-06-10T09:07:21;12.90;;;11.90;;
6626;SDS011;3349;49.830;8.748;2023-06-10T09:09:49;12.65;;;11.65;;
6626;SDS011;3349;49.830;8.748;2023-06-10T09:12:18;14.07;;;12.95;;
6626;SDS011;3349;49.830;8.748;2023-06-10T09:14:45;13.18;;;12.07;;
6626;SDS011;3349;49.830;8.748;2023-06-10T09:17:15;12.80;;;11.80;;
6626;SDS011;3349;49.830;8.748;2023-06-10T09:19:42;13.10;;;12.13;;
6626;SDS011;3349;49.830;8.748;2023-06-10T09:22:12;13.95;;;12.60;;
6626;SDS011;3349;49.830;8.748;2023-06-10T09:24:39;13.18;;;12.02;;
6626;SDS011;3349;49.830;8.748;2023-06-10T09:27:06;13.05;;;12.02;;
6626;SDS011;3349;49.830;8.748;2023-06-10T09:29:45;12.57;;;11.48;;
6626;SDS011;3349;49.830;8.748;2023-06-10T09:32:13;12.95;;;11.95;;
6626;SDS011;3349;49.830;8.748;2023-06-10T09:34:40;14.23;;;11.00;;
6626;SDS011;3349;49.830;8.748;2023-06-10T09:37:06;12.63;;;11.40;;
6626;SDS011;3349;49.830;8.748;2023-06-10T09:39:38;11.07;;;10.18;;
6626;SDS011;3349;49.830;8.748;2023-06-10T09:42:11;12.43;;;11.50;;
6626;SDS011;3349;49.830;8.748;2023-06-10T09:44:48;11.73;;;10.60;;
6626;SDS011;3349;49.830;8.748;2023-06-10T09:47:19;12.50;;;11.50;;
6626;SDS011;3349;49.830;8.748;2023-06-10T09:49:47;12.27;;;11.30;;
6626;SDS011;3349;49.830;8.748;2023-06-10T09:52:14;10.48;;;9.77;;
6626;SDS011;3349;49.830;8.748;2023-06-10T09:54:49;12.05;;;11.07;;
6626;SDS011;3349;49.830;8.748;2023-06-10T09:57:16;11.82;;;10.50;;
6626;SDS011;3349;49.830;8.748;2023-06-10T09:59:44;11.02;;;10.23;;
6626;SDS011;3349;49.830;8.748;2023-06-10T10:02:13;12.43;;;11.52;;
6626;SDS011;3349;49.830;8.748;2023-06-10T10:04:40;11.88;;;10.98;;
6626;SDS011;3349;49.830;8.748;2023-06-10T10:07:07;11.27;;;10.45;;
6626;SDS011;3349;49.830;8.748;2023-06-10T10:09:35;10.88;;;10.05;;
6626;SDS011;3349;49.830;8.748;2023-06-10T10:12:03;10.25;;;9.43;;
6626;SDS011;3349;49.830;8.748;2023-06-10T10:14:36;11.25;;;10.32;;
6626;SDS011;3349;49.830;8.748;2023-06-10T10:17:04;10.68;;;9.88;;
6626;SDS011;3349;49.830;8.748;2023-06-10T10:19:36;10.43;;;9.52;;
6626;SDS011;3349;49.830;8.748;2023-06-10T10:22:08;10.77;;;9.88;;
6626;SDS011;3349;49.830;8.748;2023-06-10T10:24:38;10.43;;;9.50;;
6626;SDS011;3349;49.830;8.748;2023-06-10T10:27:11;9.13;;;8.38;;
6626;SDS011;3349;49.830;8.748;2023-06-10T10:29:41;9.15;;;8.32;;
6626;SDS011;3349;49.830;8.748;2023-06-10T10:32:11;8.57;;;7.88;;
6626;SDS011;3349;49.830;8.748;2023-06-10T10:34:41;8.70;;;8.10;;
6626;SDS011;3349;49.830;8.748;2023-06-10T10:37:13;8.82;;;8.13;;
6626;SDS011;3349;49.830;8.748;2023-06-10T10:39:40;7.65;;;7.05;;
6626;SDS011;3349;49.830;8.748;2023-06-10T10:42:07;8.15;;;7.45;;
6626;SDS011;3349;49.830;8.748;2023-06-10T10:44:36;8.20;;;7.43;;
6626;SDS011;3349;49.830;8.748;2023-06-10T10:47:04;7.47;;;6.78;;
6626;SDS011;3349;49.830;8.748;2023-06-10T10:49:33;7.28;;;6.60;;
6626;SDS011;3349;49.830;8.748;2023-06-10T10:52:03;6.90;;;6.40;;
6626;SDS011;3349;49.830;8.748;2023-06-10T10:54:32;7.60;;;7.03;;
6626;SDS011;3349;49.830;8.748;2023-06-10T10:57:15;7.38;;;6.80;;
6626;SDS011;3349;49.830;8.748;2023-06-10T10:59:51;6.72;;;6.22;;
6626;SDS011;3349;49.830;8.748;2023-06-10T11:02:31;7.13;;;6.68;;
6626;SDS011;3349;49.830;8.748;2023-06-10T11:05:00;6.95;;;6.38;;
6626;SDS011;3349;49.830;8.748;2023-06-10T11:07:31;7.18;;;6.68;;
6626;SDS011;3349;49.830;8.748;2023-06-10T11:09:59;6.90;;;6.40;;
6626;SDS011;3349;49.830;8.748;2023-06-10T11:12:40;7.43;;;6.80;;
6626;SDS011;3349;49.830;8.748;2023-06-10T11:15:22;7.60;;;7.05;;
6626;SDS011;3349;49.830;8.748;2023-06-10T11:23:26;7.40;;;6.90;;
6626;SDS011;3349;49.830;8.748;2023-06-10T11:26:09;7.05;;;6.55;;
6626;SDS011;3349;49.830;8.748;2023-06-10T11:28:40;7.68;;;7.07;;
6626;SDS011;3349;49.830;8.748;2023-06-10T11:31:09;7.75;;;7.15;;
6626;SDS011;3349;49.830;8.748;2023-06-10T11:33:45;7.45;;;6.85;;
6626;SDS011;3349;49.830;8.748;2023-06-10T11:36:13;6.85;;;6.35;;
6626;SDS011;3349;49.830;8.748;2023-06-10T11:38:40;7.53;;;6.82;;
6626;SDS011;3349;49.830;8.748;2023-06-10T11:41:08;7.82;;;7.22;;
6626;SDS011;3349;49.830;8.748;2023-06-10T11:43:36;7.63;;;6.57;;
6626;SDS011;3349;49.830;8.748;2023-06-10T11:46:03;7.35;;;6.70;;
6626;SDS011;3349;49.830;8.748;2023-06-10T11:48:34;7.00;;;6.50;;
6626;SDS011;3349;49.830;8.748;2023-06-10T11:51:04;7.00;;;6.50;;
6626;SDS011;3349;49.830;8.748;2023-06-10T11:53:32;7.82;;;7.15;;
6626;SDS011;3349;49.830;8.748;2023-06-10T11:55:58;7.00;;;6.40;;
6626;SDS011;3349;49.830;8.748;2023-06-10T11:58:25;7.13;;;6.63;;
6626;SDS011;3349;49.830;8.748;2023-06-10T12:00:52;7.93;;;7.32;;
6626;SDS011;3349;49.830;8.748;2023-06-10T12:03:21;7.00;;;6.43;;
6626;SDS011;3349;49.830;8.748;2023-06-10T12:05:56;7.28;;;6.68;;
6626;SDS011;3349;49.830;8.748;2023-06-10T12:08:24;7.45;;;6.85;;
6626;SDS011;3349;49.830;8.748;2023-06-10T12:10:52;7.60;;;6.90;;
6626;SDS011;3349;49.830;8.748;2023-06-10T12:13:19;7.55;;;6.93;;
6626;SDS011;3349;49.830;8.748;2023-06-10T12:15:46;7.45;;;6.80;;
6626;SDS011;3349;49.830;8.748;2023-06-10T12:18:16;7.25;;;6.63;;
6626;SDS011;3349;49.830;8.748;2023-06-10T12:20:43;7.22;;;6.72;;
6626;SDS011;3349;49.830;8.748;2023-06-10T12:23:12;7.32;;;6.63;;
6626;SDS011;3349;49.830;8.748;2023-06-10T12:25:39;7.38;;;6.68;;
6626;SDS011;3349;49.830;8.748;2023-06-10T12:28:15;8.60;;;7.20;;
6626;SDS011;3349;49.830;8.748;2023-06-10T12:30:42;8.02;;;7.43;;
6626;SDS011;3349;49.830;8.748;2023-06-10T12:33:15;8.05;;;7.38;;
6626;SDS011;3349;49.830;8.748;2023-06-10T12:35:46;7.38;;;6.78;;
6626;SDS011;3349;49.830;8.748;2023-06-10T12:38:18;7.88;;;7.38;;
6626;SDS011;3349;49.830;8.748;2023-06-10T12:40:47;7.60;;;7.00;;
6626;SDS011;3349;49.830;8.748;2023-06-10T12:43:18;7.75;;;7.15;;
6626;SDS011;3349;49.830;8.748;2023-06-10T12:45:46;7.38;;;6.88;;
6626;SDS011;3349;49.830;8.748;2023-06-10T12:48:17;8.20;;;7.38;;
6626;SDS011;3349;49.830;8.748;2023-06-10T12:50:50;7.68;;;7.07;;
6626;SDS011;3349;49.830;8.748;2023-06-10T12:53:19;7.78;;;7.18;;
6626;SDS011;3349;49.830;8.748;2023-06-10T12:55:48;7.97;;;7.20;;
6626;SDS011;3349;49.830;8.748;2023-06-10T12:58:15;7.70;;;7.10;;
6626;SDS011;3349;49.830;8.748;2023-06-10T13:00:41;8.80;;;7.90;;
6626;SDS011;3349;49.830;8.748;2023-06-10T13:03:09;8.18;;;7.20;;
6626;SDS011;3349;49.830;8.748;2023-06-10T13:05:36;8.07;;;7.30;;
6626;SDS011;3349;49.830;8.748;2023-06-10T13:08:03;7.32;;;6.72;;
6626;SDS011;3349;49.830;8.748;2023-06-10T13:10:32;7.80;;;7.10;;
6626;SDS011;3349;49.830;8.748;2023-06-10T13:13:00;7.90;;;7.30;;
6626;SDS011;3349;49.830;8.748;2023-06-10T13:15:27;8.10;;;7.20;;
6626;SDS011;3349;49.830;8.748;2023-06-10T13:17:54;8.27;;;7.68;;
6626;SDS011;3349;49.830;8.748;2023-06-10T13:20:21;10.85;;;7.75;;
6626;SDS011;3349;49.830;8.748;2023-06-10T13:22:48;8.23;;;7.57;;
6626;SDS011;3349;49.830;8.748;2023-06-10T13:25:15;7.75;;;7.15;;
6626;SDS011;3349;49.830;8.748;2023-06-10T13:27:43;7.88;;;7.18;;
6626;SDS011;3349;49.830;8.748;2023-06-10T13:30:10;7.57;;;6.88;;
6626;SDS011;3349;49.830;8.748;2023-06-10T13:32:37;7.80;;;7.10;;
6626;SDS011;3349;49.830;8.748;2023-06-10T13:35:04;7.85;;;7.20;;
6626;SDS011;3349;49.830;8.748;2023-06-10T13:37:32;7.85;;;7.25;;
6626;SDS011;3349;49.830;8.748;2023-06-10T13:39:59;7.90;;;7.30;;
6626;SDS011;3349;49.830;8.748;2023-06-10T13:42:26;7.65;;;7.03;;
6626;SDS011;3349;49.830;8.748;2023-06-10T13:44:55;7.72;;;7.13;;
6626;SDS011;3349;49.830;8.748;2023-06-10T13:47:22;7.82;;;7.13;;
6626;SDS011;3349;49.830;8.748;2023-06-10T13:49:49;7.82;;;7.22;;
6626;SDS011;3349;49.830;8.748;2023-06-10T13:52:16;7.57;;;6.90;;
6626;SDS011;3349;49.830;8.748;2023-06-10T13:54:43;7.13;;;6.50;;
6626;SDS011;3349;49.830;8.748;2023-06-10T13:57:09;8.02;;;7.43;;
6626;SDS011;3349;49.830;8.748;2023-06-10T13:59:36;7.20;;;6.53;;
6626;SDS011;3349;49.830;8.748;2023-06-10T14:02:04;7.88;;;7.05;;
6626;SDS011;3349;49.830;8.748;2023-06-10T14:04:31;7.57;;;6.97;;
6626;SDS011;3349;49.830;8.748;2023-06-10T14:06:58;8.10;;;7.40;;
6626;SDS011;3349;49.830;8.748;2023-06-10T14:09:25;8.45;;;7.65;;
6626;SDS011;3349;49.830;8.748;2023-06-10T14:11:52;10.38;;;7.43;;
6626;SDS011;3349;49.830;8.748;2023-06-10T14:14:19;7.97;;;7.38;;
6626;SDS011;3349;49.830;8.748;2023-06-10T14:16:47;7.88;;;7.10;;
6626;SDS011;3349;49.830;8.748;2023-06-10T14:19:15;7.65;;;6.93;;
6626;SDS011;3349;49.830;8.748;2023-06-10T14:21:42;6.93;;;6.32;;
6626;SDS011;3349;49.830;8.748;2023-06-10T14:24:09;7.70;;;6.90;;
6626;SDS011;3349;49.830;8.748;2023-06-10T14:26:35;8.20;;;7.50;;
6626;SDS011;3349;49.830;8.748;2023-06-10T14:29:02;7.90;;;7.22;;
6626;SDS011;3349;49.830;8.748;2023-06-10T14:31:29;7.97;;;7.32;;
6626;SDS011;3349;49.830;8.748;2023-06-10T14:33:55;7.43;;;6.93;;
6626;SDS011;3349;49.830;8.748;2023-06-10T14:36:23;8.05;;;7.07;;
6626;SDS011;3349;49.830;8.748;2023-06-10T14:38:50;7.85;;;7.10;;
6626;SDS011;3349;49.830;8.748;2023-06-10T14:41:17;7.57;;;6.80;;
6626;SDS011;3349;49.830;8.748;2023-06-10T14:43:44;8.63;;;6.75;;
6626;SDS011;3349;49.830;8.748;2023-06-10T14:46:10;7.47;;;6.88;;
6626;SDS011;3349;49.830;8.748;2023-06-10T14:48:37;7.07;;;6.40;;
6626;SDS011;3349;49.830;8.748;2023-06-10T14:51:04;6.97;;;6.38;;
6626;SDS011;3349;49.830;8.748;2023-06-10T14:53:32;7.57;;;6.80;;
6626;SDS011;3349;49.830;8.748;2023-06-10T14:55:59;7.25;;;6.65;;
6626;SDS011;3349;49.830;8.748;2023-06-10T14:58:26;7.25;;;6.63;;
6626;SDS011;3349;49.830;8.748;2023-06-10T15:00:53;7.63;;;6.95;;
6626;SDS011;3349;49.830;8.748;2023-06-10T15:03:19;7.65;;;7.03;;
6626;SDS011;3349;49.830;8.748;2023-06-10T15:05:46;7.32;;;5.95;;